sensor_id;sensor_type;location;lat;lon;timestamp;pressure;altitude;pressure_sealevel;temperature;humidity
52137;BME280;69622;49.570;10.986;2023-05-09T00:01:44;98752.84;;;14.50;68.50
52137;BME280;69622;49.570;10.986;2023-05-09T00:04:46;98767.16;;;14.46;68.34
52137;BME280;69622;49.570;10.986;2023-05-09T00:07:48;98761.59;;;14.39;69.24
52137;BME280;69622;49.570;10.986;2023-05-09T00:10:50;98753.88;;;14.38;69.53
52137;BME280;69622;49.570;10.986;2023-05-09T00:13:51;98761.72;;;14.38;69.07
52137;BME280;69622;49.570;10.986;2023-05-09T00:16:53;98758.50;;;14.34;69.62
52137;BME280;69622;49.570;10.986;2023-05-09T00:19:55;98753.28;;;14.34;69.24
52137;BME280;69622;49.570;10.986;2023-05-09T00:22:56;98754.00;;;14.36;69.54
52137;BME280;69622;49.570;10.986;2023-05-09T00:25:58;98751.75;;;14.32;69.56
52137;BME280;69622;49.570;10.986;2023-05-09T00:28:59;98745.44;;;14.34;69.40
52137;BME280;69622;49.570;10.986;2023-05-09T00:32:01;98746.53;;;14.32;68.59
52137;BME280;69622;49.570;10.986;2023-05-09T00:35:02;98737.84;;;14.31;69.17
52137;BME280;69622;49.570;10.986;2023-05-09T00:38:04;98739.06;;;14.27;69.24
52137;BME280;69622;49.570;10.986;2023-05-09T00:41:05;98737.97;;;14.30;69.56
52137;BME280;69622;49.570;10.986;2023-05-09T00:44:07;98731.09;;;14.29;70.19
52137;BME280;69622;49.570;10.986;2023-05-09T00:47:08;98732.63;;;14.31;70.62
52137;BME280;69622;49.570;10.986;2023-05-09T00:50:10;98729.16;;;14.31;70.12
52137;BME280;69622;49.570;10.986;2023-05-09T00:53:12;98715.53;;;14.27;70.23
52137;BME280;69622;49.570;10.986;2023-05-09T00:56:14;98714.00;;;14.25;71.18
52137;BME280;69622;49.570;10.986;2023-05-09T00:59:16;98717.03;;;14.20;70.88
52137;BME280;69622;49.570;10.986;2023-05-09T01:02:18;98707.25;;;14.22;70.72
52137;BME280;69622;49.570;10.986;2023-05-09T01:05:24;98702.16;;;14.21;71.30
52137;BME280;69622;49.570;10.986;2023-05-09T01:08:39;98707.38;;;14.21;71.19
52137;BME280;69622;49.570;10.986;2023-05-09T01:11:49;98704.88;;;14.19;70.72
52137;BME280;69622;49.570;10.986;2023-05-09T01:18:16;98705.22;;;14.05;71.06
52137;BME280;69622;49.570;10.986;2023-05-09T01:21:23;98701.78;;;14.04;71.15
52137;BME280;69622;49.570;10.986;2023-05-09T01:25:05;98700.00;;;14.05;71.31
52137;BME280;69622;49.570;10.986;2023-05-09T01:28:13;98700.09;;;14.03;72.10
52137;BME280;69622;49.570;10.986;2023-05-09T01:31:16;98698.06;;;14.07;71.99
52137;BME280;69622;49.570;10.986;2023-05-09T01:34:21;98699.03;;;14.06;72.35
52137;BME280;69622;49.570;10.986;2023-05-09T01:37:29;98690.94;;;14.09;72.05
52137;BME280;69622;49.570;10.986;2023-05-09T01:40:32;98690.22;;;14.07;72.17
52137;BME280;69622;49.570;10.986;2023-05-09T01:43:36;98680.97;;;14.03;72.85
52137;BME280;69622;49.570;10.986;2023-05-09T01:46:38;98679.13;;;13.94;73.21
52137;BME280;69622;49.570;10.986;2023-05-09T01:49:40;98677.97;;;13.87;73.26
52137;BME280;69622;49.570;10.986;2023-05-09T01:52:45;98676.91;;;13.89;72.97
52137;BME280;69622;49.570;10.986;2023-05-09T01:55:49;98671.78;;;13.88;72.66
52137;BME280;69622;49.570;10.986;2023-05-09T01:58:52;98682.38;;;13.86;72.68
52137;BME280;69622;49.570;10.986;2023-05-09T02:01:56;98677.81;;;13.78;73.44
52137;BME280;69622;49.570;10.986;2023-05-09T02:04:59;98676.59;;;13.83;73.83
52137;BME280;69622;49.570;10.986;2023-05-09T02:08:01;98668.31;;;13.77;73.43
52137;BME280;69622;49.570;10.986;2023-05-09T02:11:02;98676.59;;;13.83;73.57
52137;BME280;69622;49.570;10.986;2023-05-09T02:14:04;98676.72;;;13.81;73.47
52137;BME280;69622;49.570;10.986;2023-05-09T02:17:06;98674.22;;;13.79;73.78
52137;BME280;69622;49.570;10.986;2023-05-09T02:20:09;98679.06;;;13.84;73.72
52137;BME280;69622;49.570;10.986;2023-05-09T02:23:11;98682.06;;;13.79;75.25
52137;BME280;69622;49.570;10.986;2023-05-09T02:26:13;98675.19;;;13.78;74.90
52137;BME280;69622;49.570;10.986;2023-05-09T02:29:16;98679.31;;;13.81;74.35
52137;BME280;69622;49.570;10.986;2023-05-09T02:32:21;98686.22;;;13.82;74.66
52137;BME280;69622;49.570;10.986;2023-05-09T02:35:25;98690.59;;;13.82;74.18
52137;BME280;69622;49.570;10.986;2023-05-09T02:38:27;98679.19;;;13.83;74.05
52137;BME280;69622;49.570;10.986;2023-05-09T02:41:29;98679.31;;;13.81;74.16
52137;BME280;69622;49.570;10.986;2023-05-09T02:44:31;98682.31;;;13.76;74.29
52137;BME280;69622;49.570;10.986;2023-05-09T02:47:33;98673.66;;;13.76;75.74
52137;BME280;69622;49.570;10.986;2023-05-09T02:50:34;98676.53;;;13.73;75.39
52137;BME280;69622;49.570;10.986;2023-05-09T02:53:38;98673.19;;;13.71;77.19
52137;BME280;69622;49.570;10.986;2023-05-09T02:56:39;98671.41;;;13.71;76.21
52137;BME280;69622;49.570;10.986;2023-05-09T02:59:41;98666.09;;;13.73;76.88
52137;BME280;69622;49.570;10.986;2023-05-09T03:02:42;98658.34;;;13.71;76.60
52137;BME280;69622;49.570;10.986;2023-05-09T03:05:44;98662.03;;;13.69;76.62
52137;BME280;69622;49.570;10.986;2023-05-09T03:08:45;98665.47;;;13.69;76.20
52137;BME280;69622;49.570;10.986;2023-05-09T03:11:47;98667.13;;;13.70;76.17
52137;BME280;69622;49.570;10.986;2023-05-09T03:14:48;98670.56;;;13.71;76.50
52137;BME280;69622;49.570;10.986;2023-05-09T03:17:49;98665.63;;;13.68;76.33
52137;BME280;69622;49.570;10.986;2023-05-09T03:20:51;98663.25;;;13.65;76.09
52137;BME280;69622;49.570;10.986;2023-05-09T03:23:52;98663.38;;;13.63;76.38
52137;BME280;69622;49.570;10.986;2023-05-09T03:26:54;98660.22;;;13.60;76.15
52137;BME280;69622;49.570;10.986;2023-05-09T03:29:55;98663.31;;;13.54;76.84
52137;BME280;69622;49.570;10.986;2023-05-09T03:32:56;98661.91;;;13.49;76.75
52137;BME280;69622;49.570;10.986;2023-05-09T03:35:58;98662.16;;;13.46;75.90
52137;BME280;69622;49.570;10.986;2023-05-09T03:38:59;98654.19;;;13.48;76.03
52137;BME280;69622;49.570;10.986;2023-05-09T03:42:01;98654.09;;;13.38;76.97
52137;BME280;69622;49.570;10.986;2023-05-09T03:45:02;98648.19;;;13.36;76.96
52137;BME280;69622;49.570;10.986;2023-05-09T03:48:04;98644.88;;;13.34;76.99
52137;BME280;69622;49.570;10.986;2023-05-09T03:51:08;98655.44;;;13.33;76.88
52137;BME280;69622;49.570;10.986;2023-05-09T03:54:10;98653.66;;;13.33;77.28
52137;BME280;69622;49.570;10.986;2023-05-09T03:57:12;98656.03;;;13.36;75.72
52137;BME280;69622;49.570;10.986;2023-05-09T04:00:14;98658.19;;;13.31;75.72
52137;BME280;69622;49.570;10.986;2023-05-09T04:03:15;98656.53;;;13.30;76.43
52137;BME280;69622;49.570;10.986;2023-05-09T04:06:17;98659.03;;;13.21;76.81
52137;BME280;69622;49.570;10.986;2023-05-09T04:09:19;98662.75;;;13.18;77.31
52137;BME280;69622;49.570;10.986;2023-05-09T04:12:20;98669.38;;;13.11;77.98
52137;BME280;69622;49.570;10.986;2023-05-09T04:15:22;98668.53;;;13.22;77.41
52137;BME280;69622;49.570;10.986;2023-05-09T04:18:26;98671.16;;;13.22;78.12
52137;BME280;69622;49.570;10.986;2023-05-09T04:21:28;98671.28;;;13.20;78.80
52137;BME280;69622;49.570;10.986;2023-05-09T04:24:29;98671.50;;;13.28;76.14
52137;BME280;69622;49.570;10.986;2023-05-09T04:27:30;98658.91;;;13.22;77.17
52137;BME280;69622;49.570;10.986;2023-05-09T04:30:32;98653.59;;;13.12;77.69
52137;BME280;69622;49.570;10.986;2023-05-09T04:33:33;98645.53;;;13.04;78.32
52137;BME280;69622;49.570;10.986;2023-05-09T04:36:36;98649.22;;;13.02;78.34
52137;BME280;69622;49.570;10.986;2023-05-09T04:39:37;98657.16;;;13.11;78.10
52137;BME280;69622;49.570;10.986;2023-05-09T04:42:39;98657.63;;;13.05;78.45
52137;BME280;69622;49.570;10.986;2023-05-09T04:45:41;98662.41;;;13.00;79.98
52137;BME280;69622;49.570;10.986;2023-05-09T04:48:42;98659.16;;;13.08;79.23
52137;BME280;69622;49.570;10.986;2023-05-09T04:51:44;98654.56;;;13.11;79.38
52137;BME280;69622;49.570;10.986;2023-05-09T04:54:45;98658.59;;;13.04;80.79
52137;BME280;69622;49.570;10.986;2023-05-09T04:57:47;98655.72;;;13.07;80.33
52137;BME280;69622;49.570;10.986;2023-05-09T05:00:48;98660.13;;;13.07;81.62
52137;BME280;69622;49.570;10.986;2023-05-09T05:03:50;98660.81;;;13.09;80.24
52137;BME280;69622;49.570;10.986;2023-05-09T05:06:51;98667.00;;;13.08;82.54
52137;BME280;69622;49.570;10.986;2023-05-09T05:09:52;98662.47;;;13.21;81.60
52137;BME280;69622;49.570;10.986;2023-05-09T05:12:54;98659.41;;;13.16;80.95
52137;BME280;69622;49.570;10.986;2023-05-09T05:15:55;98659.03;;;13.09;81.51
52137;BME280;69622;49.570;10.986;2023-05-09T05:18:58;98652.53;;;13.26;80.98
52137;BME280;69622;49.570;10.986;2023-05-09T05:21:59;98649.00;;;13.37;80.63
52137;BME280;69622;49.570;10.986;2023-05-09T05:25:02;98651.31;;;13.30;80.14
52137;BME280;69622;49.570;10.986;2023-05-09T05:28:04;98653.09;;;13.30;80.29
52137;BME280;69622;49.570;10.986;2023-05-09T05:31:06;98659.34;;;13.38;79.67
52137;BME280;69622;49.570;10.986;2023-05-09T05:34:08;98653.16;;;13.39;81.91
52137;BME280;69622;49.570;10.986;2023-05-09T05:37:09;98647.38;;;13.57;80.23
52137;BME280;69622;49.570;10.986;2023-05-09T05:40:10;98647.88;;;13.51;79.84
52137;BME280;69622;49.570;10.986;2023-05-09T05:43:12;98641.25;;;13.67;77.76
52137;BME280;69622;49.570;10.986;2023-05-09T05:46:14;98640.84;;;13.62;79.28
52137;BME280;69622;49.570;10.986;2023-05-09T05:49:15;98634.13;;;13.69;79.28
52137;BME280;69622;49.570;10.986;2023-05-09T05:52:16;98631.16;;;13.74;77.44
52137;BME280;69622;49.570;10.986;2023-05-09T05:55:18;98630.50;;;13.82;75.81
52137;BME280;69622;49.570;10.986;2023-05-09T05:58:20;98636.56;;;13.82;73.88
52137;BME280;69622;49.570;10.986;2023-05-09T06:01:21;98623.47;;;13.82;70.19
52137;BME280;69622;49.570;10.986;2023-05-09T06:04:23;98626.03;;;13.93;69.69
52137;BME280;69622;49.570;10.986;2023-05-09T06:07:25;98620.16;;;13.80;68.33
52137;BME280;69622;49.570;10.986;2023-05-09T06:10:26;98622.72;;;13.70;70.61
52137;BME280;69622;49.570;10.986;2023-05-09T06:13:28;98621.66;;;13.73;67.37
52137;BME280;69622;49.570;10.986;2023-05-09T06:16:29;98622.03;;;13.68;68.48
52137;BME280;69622;49.570;10.986;2023-05-09T06:19:31;98619.75;;;13.75;67.37
52137;BME280;69622;49.570;10.986;2023-05-09T06:22:32;98623.38;;;13.63;68.66
52137;BME280;69622;49.570;10.986;2023-05-09T06:25:34;98623.63;;;13.60;67.30
52137;BME280;69622;49.570;10.986;2023-05-09T06:28:35;98621.06;;;13.48;69.50
52137;BME280;69622;49.570;10.986;2023-05-09T06:31:37;98622.41;;;13.64;69.26
52137;BME280;69622;49.570;10.986;2023-05-09T06:34:39;98610.31;;;13.63;70.73
52137;BME280;69622;49.570;10.986;2023-05-09T06:37:42;98611.00;;;13.65;71.03
52137;BME280;69622;49.570;10.986;2023-05-09T06:40:43;98606.84;;;13.83;69.74
52137;BME280;69622;49.570;10.986;2023-05-09T06:43:44;98609.78;;;13.90;68.31
52137;BME280;69622;49.570;10.986;2023-05-09T06:46:46;98605.34;;;14.11;67.70
52137;BME280;69622;49.570;10.986;2023-05-09T06:49:47;98595.09;;;14.29;67.91
52137;BME280;69622;49.570;10.986;2023-05-09T06:52:49;98592.38;;;14.40;66.28
52137;BME280;69622;49.570;10.986;2023-05-09T06:55:50;98581.94;;;14.50;66.82
52137;BME280;69622;49.570;10.986;2023-05-09T06:58:51;98576.31;;;14.45;66.82
52137;BME280;69622;49.570;10.986;2023-05-09T07:01:53;98572.34;;;14.60;67.82
52137;BME280;69622;49.570;10.986;2023-05-09T07:04:56;98568.66;;;14.72;67.26
52137;BME280;69622;49.570;10.986;2023-05-09T07:07:57;98574.56;;;14.74;65.72
52137;BME280;69622;49.570;10.986;2023-05-09T07:10:58;98560.69;;;14.83;65.04
52137;BME280;69622;49.570;10.986;2023-05-09T07:14:00;98563.31;;;14.83;64.54
52137;BME280;69622;49.570;10.986;2023-05-09T07:17:01;98560.94;;;14.90;62.59
52137;BME280;69622;49.570;10.986;2023-05-09T07:20:22;98557.22;;;14.92;63.67
52137;BME280;69622;49.570;10.986;2023-05-09T07:23:24;98548.28;;;14.95;61.73
52137;BME280;69622;49.570;10.986;2023-05-09T07:26:27;98550.59;;;14.98;64.05
52137;BME280;69622;49.570;10.986;2023-05-09T07:29:28;98553.22;;;15.08;63.43
52137;BME280;69622;49.570;10.986;2023-05-09T07:32:30;98542.06;;;15.06;60.32
52137;BME280;69622;49.570;10.986;2023-05-09T07:35:31;98540.84;;;15.19;61.79
52137;BME280;69622;49.570;10.986;2023-05-09T07:38:32;98540.00;;;15.19;58.74
52137;BME280;69622;49.570;10.986;2023-05-09T07:41:34;98540.81;;;15.29;55.45
52137;BME280;69622;49.570;10.986;2023-05-09T07:44:35;98539.56;;;15.23;57.61
52137;BME280;69622;49.570;10.986;2023-05-09T07:47:36;98539.25;;;15.46;56.81
52137;BME280;69622;49.570;10.986;2023-05-09T07:50:39;98533.34;;;15.44;57.23
52137;BME280;69622;49.570;10.986;2023-05-09T07:53:40;98525.75;;;15.50;56.27
52137;BME280;69622;49.570;10.986;2023-05-09T07:56:41;98525.84;;;15.58;55.18
52137;BME280;69622;49.570;10.986;2023-05-09T07:59:43;98527.84;;;15.47;55.44
52137;BME280;69622;49.570;10.986;2023-05-09T08:02:44;98525.22;;;15.47;57.14
52137;BME280;69622;49.570;10.986;2023-05-09T08:05:46;98521.59;;;15.67;57.03
52137;BME280;69622;49.570;10.986;2023-05-09T08:08:47;98512.72;;;15.78;54.63
52137;BME280;69622;49.570;10.986;2023-05-09T08:11:49;98502.66;;;15.73;57.15
52137;BME280;69622;49.570;10.986;2023-05-09T08:14:50;98504.13;;;15.85;55.37
52137;BME280;69622;49.570;10.986;2023-05-09T08:17:51;98506.84;;;15.94;55.68
52137;BME280;69622;49.570;10.986;2023-05-09T08:20:53;98499.88;;;16.12;54.76
52137;BME280;69622;49.570;10.986;2023-05-09T08:23:54;98492.69;;;16.14;53.24
52137;BME280;69622;49.570;10.986;2023-05-09T08:26:56;98491.22;;;16.02;53.37
52137;BME280;69622;49.570;10.986;2023-05-09T08:29:57;98482.94;;;16.24;52.39
52137;BME280;69622;49.570;10.986;2023-05-09T08:32:58;98481.03;;;16.44;52.57
52137;BME280;69622;49.570;10.986;2023-05-09T08:36:00;98487.19;;;16.53;53.43
52137;BME280;69622;49.570;10.986;2023-05-09T08:39:02;98475.28;;;16.58;51.63
52137;BME280;69622;49.570;10.986;2023-05-09T08:42:04;98471.84;;;16.58;50.05
52137;BME280;69622;49.570;10.986;2023-05-09T08:45:08;98463.44;;;16.90;47.94
52137;BME280;69622;49.570;10.986;2023-05-09T08:48:10;98456.09;;;16.75;48.56
52137;BME280;69622;49.570;10.986;2023-05-09T08:51:11;98448.78;;;16.87;49.03
52137;BME280;69622;49.570;10.986;2023-05-09T08:54:14;98443.09;;;16.92;49.71
52137;BME280;69622;49.570;10.986;2023-05-09T08:57:16;98435.78;;;17.03;48.78
52137;BME280;69622;49.570;10.986;2023-05-09T09:00:18;98436.31;;;17.07;49.54
52137;BME280;69622;49.570;10.986;2023-05-09T09:03:22;98430.28;;;17.15;50.04
52137;BME280;69622;49.570;10.986;2023-05-09T09:06:24;98431.06;;;17.07;49.35
52137;BME280;69622;49.570;10.986;2023-05-09T09:09:26;98430.25;;;17.06;49.34
52137;BME280;69622;49.570;10.986;2023-05-09T09:12:28;98425.19;;;17.13;48.90
52137;BME280;69622;49.570;10.986;2023-05-09T09:15:34;98423.28;;;17.23;46.79
52137;BME280;69622;49.570;10.986;2023-05-09T09:18:36;98423.41;;;17.48;47.77
52137;BME280;69622;49.570;10.986;2023-05-09T09:21:40;98411.31;;;17.55;46.79
52137;BME280;69622;49.570;10.986;2023-05-09T09:24:43;98415.75;;;17.62;48.36
52137;BME280;69622;49.570;10.986;2023-05-09T09:27:44;98420.19;;;17.62;46.20
52137;BME280;69622;49.570;10.986;2023-05-09T09:30:47;98418.81;;;17.76;45.27
52137;BME280;69622;49.570;10.986;2023-05-09T09:33:49;98409.94;;;17.77;45.74
52137;BME280;69622;49.570;10.986;2023-05-09T09:36:50;98404.75;;;18.01;44.65
52137;BME280;69622;49.570;10.986;2023-05-09T09:39:55;98398.16;;;17.97;44.33
52137;BME280;69622;49.570;10.986;2023-05-09T09:42:57;98388.44;;;17.98;43.89
52137;BME280;69622;49.570;10.986;2023-05-09T09:46:02;98379.59;;;18.07;46.30
52137;BME280;69622;49.570;10.986;2023-05-09T09:49:04;98375.53;;;18.45;43.48
52137;BME280;69622;49.570;10.986;2023-05-09T09:52:05;98363.84;;;18.39;45.17
52137;BME280;69622;49.570;10.986;2023-05-09T09:55:07;98367.00;;;18.51;42.56
52137;BME280;69622;49.570;10.986;2023-05-09T09:58:15;98368.78;;;18.26;42.51
52137;BME280;69622;49.570;10.986;2023-05-09T10:01:17;98361.72;;;18.51;41.72
52137;BME280;69622;49.570;10.986;2023-05-09T10:04:18;98355.47;;;18.68;40.93
52137;BME280;69622;49.570;10.986;2023-05-09T10:07:21;98350.72;;;18.64;41.69
52137;BME280;69622;49.570;10.986;2023-05-09T10:10:25;98347.91;;;18.65;42.11
52137;BME280;69622;49.570;10.986;2023-05-09T10:13:27;98338.66;;;18.77;44.44
52137;BME280;69622;49.570;10.986;2023-05-09T10:16:29;98341.31;;;18.69;42.43
52137;BME280;69622;49.570;10.986;2023-05-09T10:19:44;98335.19;;;19.01;41.42
52137;BME280;69622;49.570;10.986;2023-05-09T10:22:47;98330.72;;;19.10;39.51
52137;BME280;69622;49.570;10.986;2023-05-09T10:26:14;98327.53;;;19.23;37.25
52137;BME280;69622;49.570;10.986;2023-05-09T10:29:17;98316.50;;;19.19;39.59
52137;BME280;69622;49.570;10.986;2023-05-09T10:32:27;98318.41;;;19.41;37.99
52137;BME280;69622;49.570;10.986;2023-05-09T10:35:39;98303.97;;;19.21;36.98
52137;BME280;69622;49.570;10.986;2023-05-09T10:38:41;98290.53;;;19.47;37.04
52137;BME280;69622;49.570;10.986;2023-05-09T10:41:43;98293.00;;;19.40;37.65
52137;BME280;69622;49.570;10.986;2023-05-09T10:44:48;98285.72;;;19.51;37.96
52137;BME280;69622;49.570;10.986;2023-05-09T10:47:50;98276.34;;;19.48;38.85
52137;BME280;69622;49.570;10.986;2023-05-09T10:50:53;98284.06;;;19.58;35.95
52137;BME280;69622;49.570;10.986;2023-05-09T10:53:55;98270.66;;;19.67;36.73
52137;BME280;69622;49.570;10.986;2023-05-09T10:56:58;98266.84;;;19.70;36.88
52137;BME280;69622;49.570;10.986;2023-05-09T11:00:00;98246.91;;;19.67;36.56
52137;BME280;69622;49.570;10.986;2023-05-09T11:03:05;98243.06;;;19.78;36.71
52137;BME280;69622;49.570;10.986;2023-05-09T11:06:07;98237.66;;;19.71;34.84
52137;BME280;69622;49.570;10.986;2023-05-09T11:09:34;98235.31;;;19.77;36.18
52137;BME280;69622;49.570;10.986;2023-05-09T11:12:55;98234.03;;;19.95;35.98
52137;BME280;69622;49.570;10.986;2023-05-09T11:19:03;98215.41;;;20.12;33.65
52137;BME280;69622;49.570;10.986;2023-05-09T11:22:18;98210.41;;;20.17;32.59
52137;BME280;69622;49.570;10.986;2023-05-09T11:25:24;98200.38;;;20.12;37.15
52137;BME280;69622;49.570;10.986;2023-05-09T11:28:28;98195.72;;;20.37;35.76
52137;BME280;69622;49.570;10.986;2023-05-09T11:31:30;98198.91;;;20.62;37.04
52137;BME280;69622;49.570;10.986;2023-05-09T11:34:32;98192.19;;;20.74;35.99
52137;BME280;69622;49.570;10.986;2023-05-09T11:38:03;98194.50;;;20.99;34.22
52137;BME280;69622;49.570;10.986;2023-05-09T11:41:05;98192.16;;;21.04;32.81
52137;BME280;69622;49.570;10.986;2023-05-09T11:44:25;98185.13;;;20.96;32.91
52137;BME280;69622;49.570;10.986;2023-05-09T11:47:28;98184.69;;;20.92;35.03
52137;BME280;69622;49.570;10.986;2023-05-09T11:50:30;98179.13;;;21.02;35.72
52137;BME280;69622;49.570;10.986;2023-05-09T11:53:32;98170.63;;;21.07;35.10
52137;BME280;69622;49.570;10.986;2023-05-09T11:56:34;98163.88;;;21.04;34.87
52137;BME280;69622;49.570;10.986;2023-05-09T11:59:37;98150.63;;;21.19;35.51
52137;BME280;69622;49.570;10.986;2023-05-09T12:02:38;98151.88;;;21.02;33.14
52137;BME280;69622;49.570;10.986;2023-05-09T12:05:40;98146.59;;;21.02;35.35
52137;BME280;69622;49.570;10.986;2023-05-09T12:08:44;98139.47;;;21.38;34.56
52137;BME280;69622;49.570;10.986;2023-05-09T12:11:48;98131.16;;;21.63;31.65
52137;BME280;69622;49.570;10.986;2023-05-09T12:14:50;98133.28;;;21.74;32.94
52137;BME280;69622;49.570;10.986;2023-05-09T12:18:06;98124.09;;;21.98;32.96
52137;BME280;69622;49.570;10.986;2023-05-09T12:21:08;98113.22;;;21.86;33.93
52137;BME280;69622;49.570;10.986;2023-05-09T12:24:09;98111.16;;;21.81;34.08
52137;BME280;69622;49.570;10.986;2023-05-09T12:27:11;98110.16;;;21.82;31.19
52137;BME280;69622;49.570;10.986;2023-05-09T12:30:12;98107.94;;;21.86;29.70
52137;BME280;69622;49.570;10.986;2023-05-09T12:33:16;98113.50;;;21.98;28.55
52137;BME280;69622;49.570;10.986;2023-05-09T12:36:18;98097.38;;;22.21;29.41
52137;BME280;69622;49.570;10.986;2023-05-09T12:39:19;98089.72;;;22.32;28.68
52137;BME280;69622;49.570;10.986;2023-05-09T12:42:27;98095.09;;;22.46;26.79
52137;BME280;69622;49.570;10.986;2023-05-09T12:45:30;98095.72;;;22.48;28.03
52137;BME280;69622;49.570;10.986;2023-05-09T12:48:35;98087.50;;;22.36;26.72
52137;BME280;69622;49.570;10.986;2023-05-09T12:51:47;98077.50;;;22.38;28.86
52137;BME280;69622;49.570;10.986;2023-05-09T12:54:51;98073.91;;;22.52;24.91
52137;BME280;69622;49.570;10.986;2023-05-09T12:58:00;98074.72;;;22.53;26.96
52137;BME280;69622;49.570;10.986;2023-05-09T13:01:02;98060.09;;;22.63;24.42
52137;BME280;69622;49.570;10.986;2023-05-09T13:04:05;98071.16;;;22.74;27.82
52137;BME280;69622;49.570;10.986;2023-05-09T13:07:10;98056.88;;;22.81;26.58
52137;BME280;69622;49.570;10.986;2023-05-09T13:10:12;98067.16;;;22.91;25.77
52137;BME280;69622;49.570;10.986;2023-05-09T13:13:15;98052.81;;;22.79;23.67
52137;BME280;69622;49.570;10.986;2023-05-09T13:16:16;98047.53;;;22.85;25.30
52137;BME280;69622;49.570;10.986;2023-05-09T13:19:18;98035.38;;;23.04;25.58
52137;BME280;69622;49.570;10.986;2023-05-09T13:22:20;98043.94;;;23.33;25.19
52137;BME280;69622;49.570;10.986;2023-05-09T13:25:21;98033.34;;;23.33;25.75
52137;BME280;69622;49.570;10.986;2023-05-09T13:28:22;98016.41;;;23.27;24.87
52137;BME280;69622;49.570;10.986;2023-05-09T13:31:24;98023.56;;;23.20;25.96
52137;BME280;69622;49.570;10.986;2023-05-09T13:34:25;98022.94;;;23.31;24.71
52137;BME280;69622;49.570;10.986;2023-05-09T13:37:27;98012.31;;;23.51;26.46
52137;BME280;69622;49.570;10.986;2023-05-09T13:40:28;98011.72;;;23.55;25.91
52137;BME280;69622;49.570;10.986;2023-05-09T13:43:30;98003.94;;;23.54;26.75
52137;BME280;69622;49.570;10.986;2023-05-09T13:46:31;98002.50;;;23.78;25.80
52137;BME280;69622;49.570;10.986;2023-05-09T13:49:33;97995.78;;;23.49;25.46
52137;BME280;69622;49.570;10.986;2023-05-09T13:52:35;97997.22;;;23.51;26.32
52137;BME280;69622;49.570;10.986;2023-05-09T13:55:36;97997.41;;;23.56;26.21
52137;BME280;69622;49.570;10.986;2023-05-09T13:58:38;97983.75;;;23.59;25.53
52137;BME280;69622;49.570;10.986;2023-05-09T14:01:39;97987.22;;;23.53;26.85
52137;BME280;69622;49.570;10.986;2023-05-09T14:04:41;97984.56;;;23.67;26.49
52137;BME280;69622;49.570;10.986;2023-05-09T14:07:43;97969.47;;;23.67;25.83
52137;BME280;69622;49.570;10.986;2023-05-09T14:10:45;97970.47;;;23.73;27.13
52137;BME280;69622;49.570;10.986;2023-05-09T14:13:46;97959.41;;;23.82;26.96
52137;BME280;69622;49.570;10.986;2023-05-09T14:16:48;97954.56;;;23.59;26.08
52137;BME280;69622;49.570;10.986;2023-05-09T14:19:49;97964.56;;;23.71;26.77
52137;BME280;69622;49.570;10.986;2023-05-09T14:22:51;97967.03;;;23.59;26.19
52137;BME280;69622;49.570;10.986;2023-05-09T14:25:55;97960.06;;;23.71;25.39
52137;BME280;69622;49.570;10.986;2023-05-09T14:28:56;97958.81;;;23.74;24.99
52137;BME280;69622;49.570;10.986;2023-05-09T14:31:57;97955.31;;;23.86;25.35
52137;BME280;69622;49.570;10.986;2023-05-09T14:34:59;97937.56;;;23.80;25.51
52137;BME280;69622;49.570;10.986;2023-05-09T14:38:01;97930.06;;;23.71;25.67
52137;BME280;69622;49.570;10.986;2023-05-09T14:41:03;97922.47;;;23.74;26.55
52137;BME280;69622;49.570;10.986;2023-05-09T14:44:04;97915.78;;;23.52;25.42
52137;BME280;69622;49.570;10.986;2023-05-09T14:47:07;97909.84;;;23.70;25.36
52137;BME280;69622;49.570;10.986;2023-05-09T14:50:08;97909.63;;;23.71;25.01
52137;BME280;69622;49.570;10.986;2023-05-09T14:53:11;97905.13;;;23.65;24.34
52137;BME280;69622;49.570;10.986;2023-05-09T14:56:13;97897.38;;;23.64;24.18
52137;BME280;69622;49.570;10.986;2023-05-09T14:59:14;97889.28;;;23.39;24.09
52137;BME280;69622;49.570;10.986;2023-05-09T15:02:16;97893.56;;;23.33;23.77
52137;BME280;69622;49.570;10.986;2023-05-09T15:05:18;97887.03;;;23.29;23.62
52137;BME280;69622;49.570;10.986;2023-05-09T15:08:19;97881.72;;;23.42;24.79
52137;BME280;69622;49.570;10.986;2023-05-09T15:11:21;97871.88;;;23.49;23.95
52137;BME280;69622;49.570;10.986;2023-05-09T15:14:23;97869.22;;;23.49;23.84
52137;BME280;69622;49.570;10.986;2023-05-09T15:17:24;97864.72;;;23.56;23.27
52137;BME280;69622;49.570;10.986;2023-05-09T15:20:26;97853.94;;;23.51;24.12
52137;BME280;69622;49.570;10.986;2023-05-09T15:23:28;97854.16;;;23.43;24.29
52137;BME280;69622;49.570;10.986;2023-05-09T15:26:29;97850.91;;;23.35;24.10
52137;BME280;69622;49.570;10.986;2023-05-09T15:29:31;97853.16;;;23.31;24.52
52137;BME280;69622;49.570;10.986;2023-05-09T15:32:32;97846.06;;;23.12;25.97
52137;BME280;69622;49.570;10.986;2023-05-09T15:35:35;97840.59;;;23.07;26.13
52137;BME280;69622;49.570;10.986;2023-05-09T15:38:37;97847.94;;;22.85;26.38
52137;BME280;69622;49.570;10.986;2023-05-09T15:41:38;97838.34;;;22.84;27.21
52137;BME280;69622;49.570;10.986;2023-05-09T15:44:41;97842.41;;;22.80;26.76
52137;BME280;69622;49.570;10.986;2023-05-09T15:47:43;97845.88;;;22.80;27.30
52137;BME280;69622;49.570;10.986;2023-05-09T15:50:44;97840.75;;;22.72;28.22
52137;BME280;69622;49.570;10.986;2023-05-09T15:53:45;97833.63;;;22.79;26.70
52137;BME280;69622;49.570;10.986;2023-05-09T15:56:47;97830.41;;;22.84;27.27
52137;BME280;69622;49.570;10.986;2023-05-09T15:59:48;97824.88;;;22.85;28.85
52137;BME280;69622;49.570;10.986;2023-05-09T16:02:50;97819.78;;;22.84;27.22